sensor_id;sensor_type;location;lat;lon;timestamp;pressure;altitude;pressure_sealevel;temperature;humidity
73151;BME280;61354;50.758;6.106;2023-06-22T00:02:14;99397.22;;;20.30;72.66
73151;BME280;61354;50.758;6.106;2023-06-22T00:04:39;99399.13;;;20.40;72.40
73151;BME280;61354;50.758;6.106;2023-06-22T00:07:05;99401.88;;;20.51;71.90
73151;BME280;61354;50.758;6.106;2023-06-22T00:09:31;99407.19;;;20.42;71.36
73151;BME280;61354;50.758;6.106;2023-06-22T00:11:57;99409.59;;;20.43;72.00
73151;BME280;61354;50.758;6.106;2023-06-22T00:14:23;99409.97;;;20.45;73.07
73151;BME280;61354;50.758;6.106;2023-06-22T00:16:49;99406.00;;;20.39;71.96
73151;BME280;61354;50.758;6.106;2023-06-22T00:19:15;99409.59;;;20.43;72.21
73151;BME280;61354;50.758;6.106;2023-06-22T00:21:41;99406.03;;;20.35;71.69
73151;BME280;61354;50.758;6.106;2023-06-22T00:24:08;99402.44;;;20.31;72.34
73151;BME280;61354;50.758;6.106;2023-06-22T00:26:33;99410.06;;;20.34;72.41
73151;BME280;61354;50.758;6.106;2023-06-22T00:28:59;99399.59;;;20.35;72.90
73151;BME280;61354;50.758;6.106;2023-06-22T00:31:25;99404.00;;;20.36;72.67
73151;BME280;61354;50.758;6.106;2023-06-22T00:33:50;99398.34;;;20.36;72.91
73151;BME280;61354;50.758;6.106;2023-06-22T00:36:16;99396.72;;;20.39;73.35
73151;BME280;61354;50.758;6.106;2023-06-22T00:38:43;99393.19;;;20.31;73.06
73151;BME280;61354;50.758;6.106;2023-06-22T00:41:09;99389.56;;;20.30;73.62
73151;BME280;61354;50.758;6.106;2023-06-22T00:43:35;99393.16;;;20.34;73.55
73151;BME280;61354;50.758;6.106;2023-06-22T00:46:00;99387.06;;;20.36;73.59
73151;BME280;61354;50.758;6.106;2023-06-22T00:48:26;99384.31;;;20.32;73.49
73151;BME280;61354;50.758;6.106;2023-06-22T00:50:52;99378.25;;;20.34;73.92
73151;BME280;61354;50.758;6.106;2023-06-22T00:53:19;99372.59;;;20.34;73.64
73151;BME280;61354;50.758;6.106;2023-06-22T00:55:45;99377.84;;;20.32;74.49
73151;BME280;61354;50.758;6.106;2023-06-22T00:58:13;99375.13;;;20.25;74.37
73151;BME280;61354;50.758;6.106;2023-06-22T01:00:40;99376.72;;;20.26;74.65
73151;BME280;61354;50.758;6.106;2023-06-22T01:03:06;99367.16;;;20.16;74.96
73151;BME280;61354;50.758;6.106;2023-06-22T01:05:35;99372.75;;;20.20;74.58
73151;BME280;61354;50.758;6.106;2023-06-22T01:11:02;99364.72;;;20.15;74.40
73151;BME280;61354;50.758;6.106;2023-06-22T01:13:45;99354.63;;;20.21;73.79
73151;BME280;61354;50.758;6.106;2023-06-22T01:16:29;99347.38;;;20.20;73.72
73151;BME280;61354;50.758;6.106;2023-06-22T01:19:00;99348.22;;;20.17;74.26
73151;BME280;61354;50.758;6.106;2023-06-22T01:21:28;99343.88;;;20.05;74.97
73151;BME280;61354;50.758;6.106;2023-06-22T01:29:11;99349.53;;;20.05;75.12
73151;BME280;61354;50.758;6.106;2023-06-22T01:31:40;99350.28;;;20.09;74.80
73151;BME280;61354;50.758;6.106;2023-06-22T01:34:08;99342.25;;;20.07;73.98
73151;BME280;61354;50.758;6.106;2023-06-22T01:36:34;99349.09;;;20.06;74.80
73151;BME280;61354;50.758;6.106;2023-06-22T01:39:01;99345.59;;;19.95;76.25
73151;BME280;61354;50.758;6.106;2023-06-22T01:41:30;99344.34;;;20.00;76.13
73151;BME280;61354;50.758;6.106;2023-06-22T01:43:56;99345.22;;;19.90;76.64
73151;BME280;61354;50.758;6.106;2023-06-22T01:46:22;99337.97;;;19.92;75.96
73151;BME280;61354;50.758;6.106;2023-06-22T01:48:49;99337.56;;;19.90;76.63
73151;BME280;61354;50.758;6.106;2023-06-22T01:51:16;99332.69;;;19.98;76.25
73151;BME280;61354;50.758;6.106;2023-06-22T01:53:42;99335.88;;;20.00;75.85
73151;BME280;61354;50.758;6.106;2023-06-22T01:56:08;99334.31;;;19.95;75.94
73151;BME280;61354;50.758;6.106;2023-06-22T01:58:37;99329.81;;;20.01;75.87
73151;BME280;61354;50.758;6.106;2023-06-22T02:01:11;99332.78;;;19.87;76.24
73151;BME280;61354;50.758;6.106;2023-06-22T02:03:41;99333.94;;;19.90;75.61
73151;BME280;61354;50.758;6.106;2023-06-22T02:06:23;99327.06;;;19.94;76.01
73151;BME280;61354;50.758;6.106;2023-06-22T02:08:57;99332.75;;;19.91;75.79
73151;BME280;61354;50.758;6.106;2023-06-22T02:11:26;99332.69;;;19.94;75.92
73151;BME280;61354;50.758;6.106;2023-06-22T02:13:53;99323.00;;;19.99;76.03
73151;BME280;61354;50.758;6.106;2023-06-22T02:16:19;99331.06;;;19.97;75.85
73151;BME280;61354;50.758;6.106;2023-06-22T02:18:49;99322.66;;;19.93;75.97
73151;BME280;61354;50.758;6.106;2023-06-22T02:21:19;99319.13;;;19.82;76.90
73151;BME280;61354;50.758;6.106;2023-06-22T02:23:44;99322.84;;;19.72;77.68
73151;BME280;61354;50.758;6.106;2023-06-22T02:26:10;99321.91;;;19.85;76.36
73151;BME280;61354;50.758;6.106;2023-06-22T02:28:36;99318.75;;;19.80;76.54
73151;BME280;61354;50.758;6.106;2023-06-22T02:31:01;99311.94;;;19.74;76.68
73151;BME280;61354;50.758;6.106;2023-06-22T02:33:27;99312.31;;;19.79;76.30
73151;BME280;61354;50.758;6.106;2023-06-22T02:35:53;99307.03;;;19.85;76.18
73151;BME280;61354;50.758;6.106;2023-06-22T02:38:18;99303.88;;;19.79;76.12
73151;BME280;61354;50.758;6.106;2023-06-22T02:40:45;99304.66;;;19.80;76.34
73151;BME280;61354;50.758;6.106;2023-06-22T02:43:10;99301.91;;;19.73;76.12
73151;BME280;61354;50.758;6.106;2023-06-22T02:45:36;99302.31;;;19.71;76.98
73151;BME280;61354;50.758;6.106;2023-06-22T02:48:02;99297.50;;;19.68;75.59
73151;BME280;61354;50.758;6.106;2023-06-22T02:50:27;99286.22;;;19.72;75.60
73151;BME280;61354;50.758;6.106;2023-06-22T02:52:53;99285.44;;;19.68;76.87
73151;BME280;61354;50.758;6.106;2023-06-22T02:55:19;99288.59;;;19.73;75.99
73151;BME280;61354;50.758;6.106;2023-06-22T02:57:44;99292.22;;;19.74;76.31
73151;BME280;61354;50.758;6.106;2023-06-22T03:00:12;99285.88;;;19.66;76.86
73151;BME280;61354;50.758;6.106;2023-06-22T03:02:45;99276.19;;;19.67;76.57
73151;BME280;61354;50.758;6.106;2023-06-22T03:05:11;99265.31;;;19.66;77.26
73151;BME280;61354;50.758;6.106;2023-06-22T03:07:41;99252.47;;;19.65;78.52
73151;BME280;61354;50.758;6.106;2023-06-22T03:10:11;99242.44;;;19.64;76.72
73151;BME280;61354;50.758;6.106;2023-06-22T03:12:38;99238.06;;;19.52;77.36
73151;BME280;61354;50.758;6.106;2023-06-22T03:15:05;99246.34;;;19.25;77.98
73151;BME280;61354;50.758;6.106;2023-06-22T03:17:31;99253.41;;;19.47;78.57
73151;BME280;61354;50.758;6.106;2023-06-22T03:19:56;99247.72;;;19.54;79.14
73151;BME280;61354;50.758;6.106;2023-06-22T03:22:22;99251.81;;;19.46;81.31
73151;BME280;61354;50.758;6.106;2023-06-22T03:24:48;99252.19;;;19.48;80.34
73151;BME280;61354;50.758;6.106;2023-06-22T03:27:13;99250.22;;;19.45;80.88
73151;BME280;61354;50.758;6.106;2023-06-22T03:29:39;99259.00;;;19.51;80.82
73151;BME280;61354;50.758;6.106;2023-06-22T03:32:04;99246.97;;;19.47;80.99
73151;BME280;61354;50.758;6.106;2023-06-22T03:34:31;99242.97;;;19.44;81.66
73151;BME280;61354;50.758;6.106;2023-06-22T03:36:59;99252.25;;;19.41;81.31
73151;BME280;61354;50.758;6.106;2023-06-22T03:39:24;99254.63;;;19.46;80.62
73151;BME280;61354;50.758;6.106;2023-06-22T03:41:50;99252.56;;;19.50;81.26
73151;BME280;61354;50.758;6.106;2023-06-22T03:44:15;99250.97;;;19.49;80.65
73151;BME280;61354;50.758;6.106;2023-06-22T03:46:41;99252.19;;;19.48;80.11
73151;BME280;61354;50.758;6.106;2023-06-22T03:49:06;99257.00;;;19.51;80.01
73151;BME280;61354;50.758;6.106;2023-06-22T03:51:32;99260.22;;;19.50;79.00
73151;BME280;61354;50.758;6.106;2023-06-22T03:53:58;99256.25;;;19.44;80.48
73151;BME280;61354;50.758;6.106;2023-06-22T03:56:23;99257.00;;;19.51;80.51
73151;BME280;61354;50.758;6.106;2023-06-22T03:58:49;99261.00;;;19.54;79.41
73151;BME280;61354;50.758;6.106;2023-06-22T04:01:15;99270.69;;;19.49;79.92
73151;BME280;61354;50.758;6.106;2023-06-22T04:03:42;99264.19;;;19.56;80.07
73151;BME280;61354;50.758;6.106;2023-06-22T04:06:08;99269.41;;;19.57;79.97
73151;BME280;61354;50.758;6.106;2023-06-22T04:08:34;99265.44;;;19.51;80.58
73151;BME280;61354;50.758;6.106;2023-06-22T04:10:59;99260.19;;;19.53;79.06
73151;BME280;61354;50.758;6.106;2023-06-22T04:13:25;99268.88;;;19.25;81.64
73151;BME280;61354;50.758;6.106;2023-06-22T04:15:50;99278.03;;;19.36;80.74
73151;BME280;61354;50.758;6.106;2023-06-22T04:18:16;99277.56;;;19.45;81.39
73151;BME280;61354;50.758;6.106;2023-06-22T04:20:42;99271.06;;;19.51;81.18
73151;BME280;61354;50.758;6.106;2023-06-22T04:23:07;99277.50;;;19.52;81.91
73151;BME280;61354;50.758;6.106;2023-06-22T04:25:33;99272.34;;;19.43;80.18
73151;BME280;61354;50.758;6.106;2023-06-22T04:27:59;99267.97;;;19.38;80.17
73151;BME280;61354;50.758;6.106;2023-06-22T04:30:24;99266.25;;;19.48;81.86
73151;BME280;61354;50.758;6.106;2023-06-22T04:32:50;99269.09;;;19.45;81.17
73151;BME280;61354;50.758;6.106;2023-06-22T04:35:22;99269.19;;;19.37;79.99
73151;BME280;61354;50.758;6.106;2023-06-22T04:37:50;99267.03;;;19.52;80.71
73151;BME280;61354;50.758;6.106;2023-06-22T04:40:21;99276.00;;;19.36;81.73
73151;BME280;61354;50.758;6.106;2023-06-22T04:42:47;99275.09;;;19.50;81.56
73151;BME280;61354;50.758;6.106;2023-06-22T04:45:19;99271.78;;;19.66;80.91
73151;BME280;61354;50.758;6.106;2023-06-22T04:47:45;99268.50;;;19.75;80.17
73151;BME280;61354;50.758;6.106;2023-06-22T04:50:12;99269.38;;;19.65;80.18
73151;BME280;61354;50.758;6.106;2023-06-22T04:52:38;99271.38;;;19.68;79.49
73151;BME280;61354;50.758;6.106;2023-06-22T04:55:04;99272.91;;;19.76;80.69
73151;BME280;61354;50.758;6.106;2023-06-22T04:57:29;99269.66;;;19.77;80.30
73151;BME280;61354;50.758;6.106;2023-06-22T04:59:59;99256.34;;;19.78;79.61
73151;BME280;61354;50.758;6.106;2023-06-22T05:02:36;99255.16;;;19.79;79.09
73151;BME280;61354;50.758;6.106;2023-06-22T05:05:03;99253.94;;;19.80;79.38
73151;BME280;61354;50.758;6.106;2023-06-22T05:07:35;99254.72;;;19.84;78.81
73151;BME280;61354;50.758;6.106;2023-06-22T05:10:04;99256.81;;;19.73;79.19
73151;BME280;61354;50.758;6.106;2023-06-22T05:12:30;99263.34;;;19.66;79.30
73151;BME280;61354;50.758;6.106;2023-06-22T05:14:56;99262.00;;;19.78;78.84
73151;BME280;61354;50.758;6.106;2023-06-22T05:17:22;99262.84;;;19.75;79.11
73151;BME280;61354;50.758;6.106;2023-06-22T05:19:48;99267.63;;;19.78;81.07
73151;BME280;61354;50.758;6.106;2023-06-22T05:22:17;99264.97;;;19.64;80.88
73151;BME280;61354;50.758;6.106;2023-06-22T05:24:43;99259.25;;;19.74;81.93
73151;BME280;61354;50.758;6.106;2023-06-22T05:27:09;99254.44;;;19.71;79.26
73151;BME280;61354;50.758;6.106;2023-06-22T05:29:38;99259.56;;;19.80;79.51
73151;BME280;61354;50.758;6.106;2023-06-22T05:32:04;99257.53;;;19.84;78.88
73151;BME280;61354;50.758;6.106;2023-06-22T05:34:30;99263.47;;;19.93;79.96
73151;BME280;61354;50.758;6.106;2023-06-22T05:36:55;99260.28;;;19.91;78.94
73151;BME280;61354;50.758;6.106;2023-06-22T05:39:21;99261.97;;;19.81;78.87
73151;BME280;61354;50.758;6.106;2023-06-22T05:41:46;99261.22;;;19.74;78.93
73151;BME280;61354;50.758;6.106;2023-06-22T05:44:12;99265.56;;;19.85;80.04
73151;BME280;61354;50.758;6.106;2023-06-22T05:46:42;99269.22;;;19.82;78.88
73151;BME280;61354;50.758;6.106;2023-06-22T05:49:14;99276.34;;;19.94;80.20
73151;BME280;61354;50.758;6.106;2023-06-22T05:51:41;99267.56;;;19.85;79.38
73151;BME280;61354;50.758;6.106;2023-06-22T05:54:07;99267.44;;;19.99;78.93
73151;BME280;61354;50.758;6.106;2023-06-22T05:56:34;99281.66;;;19.85;82.73
73151;BME280;61354;50.758;6.106;2023-06-22T05:59:00;99281.53;;;19.99;79.48
73151;BME280;61354;50.758;6.106;2023-06-22T06:01:25;99274.72;;;19.97;80.56
73151;BME280;61354;50.758;6.106;2023-06-22T06:03:52;99277.47;;;20.04;80.22
73151;BME280;61354;50.758;6.106;2023-06-22T06:06:18;99275.44;;;20.04;80.05
73151;BME280;61354;50.758;6.106;2023-06-22T06:08:46;99268.56;;;20.05;79.19
73151;BME280;61354;50.758;6.106;2023-06-22T06:11:12;99277.09;;;19.98;79.20
73151;BME280;61354;50.758;6.106;2023-06-22T06:13:37;99281.38;;;20.14;78.43
73151;BME280;61354;50.758;6.106;2023-06-22T06:16:03;99283.47;;;20.06;78.44
73151;BME280;61354;50.758;6.106;2023-06-22T06:18:29;99286.25;;;20.09;78.68
73151;BME280;61354;50.758;6.106;2023-06-22T06:20:54;99277.69;;;20.20;78.88
73151;BME280;61354;50.758;6.106;2023-06-22T06:23:20;99274.38;;;20.29;77.08
73151;BME280;61354;50.758;6.106;2023-06-22T06:25:45;99280.75;;;20.33;79.50
73151;BME280;61354;50.758;6.106;2023-06-22T06:28:11;99278.56;;;20.14;78.42
73151;BME280;61354;50.758;6.106;2023-06-22T06:30:37;99274.31;;;20.32;79.78
73151;BME280;61354;50.758;6.106;2023-06-22T06:33:03;99279.78;;;20.50;78.59
73151;BME280;61354;50.758;6.106;2023-06-22T06:35:30;99267.97;;;20.59;78.20
73151;BME280;61354;50.758;6.106;2023-06-22T06:37:55;99268.28;;;20.65;78.45
73151;BME280;61354;50.758;6.106;2023-06-22T06:40:21;99257.81;;;20.65;77.05
73151;BME280;61354;50.758;6.106;2023-06-22T06:42:48;99256.25;;;20.60;77.72
73151;BME280;61354;50.758;6.106;2023-06-22T06:45:19;99260.94;;;20.74;77.62
73151;BME280;61354;50.758;6.106;2023-06-22T06:47:45;99247.03;;;20.87;78.84
73151;BME280;61354;50.758;6.106;2023-06-22T06:50:11;99247.75;;;20.95;77.72
73151;BME280;61354;50.758;6.106;2023-06-22T06:52:37;99245.38;;;20.90;75.92
73151;BME280;61354;50.758;6.106;2023-06-22T06:55:04;99232.53;;;20.85;74.53
73151;BME280;61354;50.758;6.106;2023-06-22T06:57:38;99235.38;;;20.85;75.50
73151;BME280;61354;50.758;6.106;2023-06-22T07:00:05;99216.22;;;21.00;76.64
73151;BME280;61354;50.758;6.106;2023-06-22T07:02:43;99215.19;;;21.14;76.40
73151;BME280;61354;50.758;6.106;2023-06-22T07:05:09;99207.09;;;21.16;76.21
73151;BME280;61354;50.758;6.106;2023-06-22T07:07:36;99209.22;;;21.31;75.53
73151;BME280;61354;50.758;6.106;2023-06-22T07:10:04;99201.00;;;21.17;75.26
73151;BME280;61354;50.758;6.106;2023-06-22T07:12:30;99203.56;;;21.35;74.78
73151;BME280;61354;50.758;6.106;2023-06-22T07:15:06;99200.22;;;21.17;75.24
73151;BME280;61354;50.758;6.106;2023-06-22T07:17:35;99189.88;;;21.06;75.59
73151;BME280;61354;50.758;6.106;2023-06-22T07:20:02;99181.34;;;21.10;74.33
73151;BME280;61354;50.758;6.106;2023-06-22T07:22:33;99176.47;;;21.38;75.73
73151;BME280;61354;50.758;6.106;2023-06-22T07:24:58;99177.72;;;21.37;74.42
73151;BME280;61354;50.758;6.106;2023-06-22T07:27:24;99178.84;;;21.63;74.90
73151;BME280;61354;50.758;6.106;2023-06-22T07:29:50;99168.31;;;21.43;74.23
73151;BME280;61354;50.758;6.106;2023-06-22T07:32:15;99172.47;;;21.58;74.33
73151;BME280;61354;50.758;6.106;2023-06-22T07:34:41;99160.53;;;21.71;74.15
73151;BME280;61354;50.758;6.106;2023-06-22T07:37:07;99160.38;;;21.58;73.44
73151;BME280;61354;50.758;6.106;2023-06-22T07:39:32;99162.84;;;21.76;73.76
73151;BME280;61354;50.758;6.106;2023-06-22T07:41:58;99166.19;;;21.71;74.45
73151;BME280;61354;50.758;6.106;2023-06-22T07:44:23;99173.91;;;21.90;74.53
73151;BME280;61354;50.758;6.106;2023-06-22T07:46:49;99170.34;;;21.86;74.92
73151;BME280;61354;50.758;6.106;2023-06-22T07:49:16;99174.53;;;21.78;76.07
73151;BME280;61354;50.758;6.106;2023-06-22T07:51:41;99168.53;;;21.96;76.01
73151;BME280;61354;50.758;6.106;2023-06-22T07:54:07;99160.41;;;21.98;77.00
73151;BME280;61354;50.758;6.106;2023-06-22T07:56:32;99150.91;;;21.88;75.32
73151;BME280;61354;50.758;6.106;2023-06-22T07:58:58;99134.72;;;21.69;75.88
73151;BME280;61354;50.758;6.106;2023-06-22T08:01:26;99123.94;;;22.03;75.82
73151;BME280;61354;50.758;6.106;2023-06-22T08:03:51;99109.00;;;22.03;75.57
73151;BME280;61354;50.758;6.106;2023-06-22T08:06:17;99100.09;;;22.24;76.00
73151;BME280;61354;50.758;6.106;2023-06-22T08:08:43;99099.34;;;22.00;74.48
73151;BME280;61354;50.758;6.106;2023-06-22T08:11:09;99108.56;;;22.04;74.93
73151;BME280;61354;50.758;6.106;2023-06-22T08:13:34;99122.56;;;22.12;74.76
73151;BME280;61354;50.758;6.106;2023-06-22T08:16:00;99125.38;;;22.12;76.03
73151;BME280;61354;50.758;6.106;2023-06-22T08:18:26;99124.31;;;22.25;75.88
73151;BME280;61354;50.758;6.106;2023-06-22T08:20:52;99143.50;;;22.34;75.38
73151;BME280;61354;50.758;6.106;2023-06-22T08:23:18;99145.16;;;22.68;75.41
73151;BME280;61354;50.758;6.106;2023-06-22T08:25:43;99141.13;;;22.69;74.97
73151;BME280;61354;50.758;6.106;2023-06-22T08:28:09;99126.56;;;22.50;73.65
73151;BME280;61354;50.758;6.106;2023-06-22T08:30:35;99125.56;;;22.77;74.68
73151;BME280;61354;50.758;6.106;2023-06-22T08:33:00;99131.53;;;22.63;75.10
73151;BME280;61354;50.758;6.106;2023-06-22T08:35:26;99122.59;;;22.64;74.65
73151;BME280;61354;50.758;6.106;2023-06-22T08:37:51;99108.06;;;22.98;75.21
73151;BME280;61354;50.758;6.106;2023-06-22T08:40:20;99105.75;;;23.10;74.81
73151;BME280;61354;50.758;6.106;2023-06-22T08:42:46;99110.69;;;23.05;73.45
73151;BME280;61354;50.758;6.106;2023-06-22T08:45:13;99104.53;;;23.11;73.63
73151;BME280;61354;50.758;6.106;2023-06-22T08:47:40;99103.38;;;22.92;74.18
73151;BME280;61354;50.758;6.106;2023-06-22T08:50:07;99101.50;;;23.01;74.32
73151;BME280;61354;50.758;6.106;2023-06-22T08:52:34;99099.56;;;23.15;73.51
73151;BME280;61354;50.758;6.106;2023-06-22T08:55:01;99094.75;;;23.28;73.34
73151;BME280;61354;50.758;6.106;2023-06-22T08:57:27;99092.03;;;23.53;73.74
73151;BME280;61354;50.758;6.106;2023-06-22T08:59:53;99088.19;;;23.47;73.64
73151;BME280;61354;50.758;6.106;2023-06-22T09:02:19;99087.75;;;23.78;73.32
73151;BME280;61354;50.758;6.106;2023-06-22T09:04:48;99085.09;;;23.71;71.81
73151;BME280;61354;50.758;6.106;2023-06-22T09:07:14;99074.75;;;23.64;71.57
73151;BME280;61354;50.758;6.106;2023-06-22T09:09:39;99068.22;;;23.80;71.57
73151;BME280;61354;50.758;6.106;2023-06-22T09:12:05;99060.88;;;23.95;71.49
73151;BME280;61354;50.758;6.106;2023-06-22T09:14:31;99063.88;;;23.46;71.40
73151;BME280;61354;50.758;6.106;2023-06-22T09:16:57;99068.25;;;23.64;72.56
73151;BME280;61354;50.758;6.106;2023-06-22T09:19:22;99057.44;;;23.75;71.35
73151;BME280;61354;50.758;6.106;2023-06-22T09:21:48;99050.69;;;23.56;72.97
73151;BME280;61354;50.758;6.106;2023-06-22T09:24:13;99062.59;;;23.64;71.91
73151;BME280;61354;50.758;6.106;2023-06-22T09:26:39;99059.63;;;23.54;72.13
73151;BME280;61354;50.758;6.106;2023-06-22T09:29:05;99064.25;;;23.48;72.04
73151;BME280;61354;50.758;6.106;2023-06-22T09:31:31;99063.00;;;23.49;72.92
73151;BME280;61354;50.758;6.106;2023-06-22T09:33:57;99064.59;;;23.50;73.39
73151;BME280;61354;50.758;6.106;2023-06-22T09:36:22;99078.16;;;23.43;72.34
73151;BME280;61354;50.758;6.106;2023-06-22T09:38:49;99103.97;;;23.32;73.28
73151;BME280;61354;50.758;6.106;2023-06-22T09:41:20;99128.59;;;23.35;75.77
73151;BME280;61354;50.758;6.106;2023-06-22T09:43:46;99153.16;;;23.38;74.53
73151;BME280;61354;50.758;6.106;2023-06-22T09:46:15;99169.06;;;23.19;75.47
73151;BME280;61354;50.758;6.106;2023-06-22T09:48:40;99182.06;;;23.17;76.06
73151;BME280;61354;50.758;6.106;2023-06-22T09:51:06;99185.44;;;23.12;76.37
73151;BME280;61354;50.758;6.106;2023-06-22T09:53:31;99181.72;;;22.98;82.14
73151;BME280;61354;50.758;6.106;2023-06-22T09:55:57;99181.88;;;22.91;83.04
73151;BME280;61354;50.758;6.106;2023-06-22T09:58:23;99178.44;;;22.80;87.80
73151;BME280;61354;50.758;6.106;2023-06-22T10:00:48;99179.84;;;22.72;89.77
73151;BME280;61354;50.758;6.106;2023-06-22T10:03:14;99184.16;;;22.60;93.48
73151;BME280;61354;50.758;6.106;2023-06-22T10:05:39;99178.91;;;22.42;96.71
73151;BME280;61354;50.758;6.106;2023-06-22T10:08:05;99184.34;;;22.33;95.00
73151;BME280;61354;50.758;6.106;2023-06-22T10:10:33;99186.78;;;22.15;98.29
73151;BME280;61354;50.758;6.106;2023-06-22T10:13:08;99187.22;;;22.09;100.00
73151;BME280;61354;50.758;6.106;2023-06-22T10:15:34;99188.91;;;22.07;100.00
73151;BME280;61354;50.758;6.106;2023-06-22T10:18:00;99185.44;;;21.99;100.00
73151;BME280;61354;50.758;6.106;2023-06-22T10:20:26;99183.97;;;21.91;100.00
73151;BME280;61354;50.758;6.106;2023-06-22T10:22:51;99171.34;;;21.76;100.00
73151;BME280;61354;50.758;6.106;2023-06-22T10:25:17;99160.09;;;21.72;100.00
73151;BME280;61354;50.758;6.106;2023-06-22T10:27:43;99160.94;;;21.49;100.00
73151;BME280;61354;50.758;6.106;2023-06-22T10:30:10;99155.88;;;21.60;100.00
73151;BME280;61354;50.758;6.106;2023-06-22T10:32:38;99140.25;;;21.76;100.00
73151;BME280;61354;50.758;6.106;2023-06-22T10:35:05;99131.41;;;21.74;100.00
73151;BME280;61354;50.758;6.106;2023-06-22T10:37:31;99118.72;;;21.82;100.00
73151;BME280;61354;50.758;6.106;2023-06-22T10:39:56;99100.31;;;21.74;100.00
73151;BME280;61354;50.758;6.106;2023-06-22T10:42:22;99094.22;;;21.95;100.00
73151;BME280;61354;50.758;6.106;2023-06-22T10:44:48;99096.91;;;22.02;100.00
73151;BME280;61354;50.758;6.106;2023-06-22T10:47:14;99095.66;;;22.03;100.00
73151;BME280;61354;50.758;6.106;2023-06-22T10:49:39;99083.75;;;22.12;100.00
73151;BME280;61354;50.758;6.106;2023-06-22T10:52:08;99077.31;;;22.12;100.00
73151;BME280;61354;50.758;6.106;2023-06-22T10:54:35;99069.06;;;22.21;100.00
73151;BME280;61354;50.758;6.106;2023-06-22T10:57:01;99069.25;;;22.30;100.00
73151;BME280;61354;50.758;6.106;2023-06-22T10:59:27;99066.84;;;22.28;100.00
73151;BME280;61354;50.758;6.106;2023-06-22T11:01:55;99051.03;;;22.47;100.00
73151;BME280;61354;50.758;6.106;2023-06-22T11:04:20;99036.19;;;22.59;100.00
73151;BME280;61354;50.758;6.106;2023-06-22T11:06:48;99013.03;;;22.48;100.00
73151;BME280;61354;50.758;6.106;2023-06-22T11:09:14;99008.78;;;22.24;100.00
73151;BME280;61354;50.758;6.106;2023-06-22T11:11:44;99002.22;;;22.27;100.00
73151;BME280;61354;50.758;6.106;2023-06-22T11:14:10;98991.00;;;22.56;100.00
73151;BME280;61354;50.758;6.106;2023-06-22T11:16:36;98987.75;;;22.57;100.00
73151;BME280;61354;50.758;6.106;2023-06-22T11:19:01;98982.97;;;22.54;100.00
73151;BME280;61354;50.758;6.106;2023-06-22T11:21:28;98985.84;;;23.00;100.00
73151;BME280;61354;50.758;6.106;2023-06-22T11:23:54;98994.34;;;23.29;100.00
73151;BME280;61354;50.758;6.106;2023-06-22T11:26:19;98977.00;;;23.27;100.00
73151;BME280;61354;50.758;6.106;2023-06-22T11:28:46;98986.63;;;23.00;100.00
73151;BME280;61354;50.758;6.106;2023-06-22T11:31:15;98981.75;;;23.30;100.00
73151;BME280;61354;50.758;6.106;2023-06-22T11:33:40;98985.84;;;23.29;100.00
73151;BME280;61354;50.758;6.106;2023-06-22T11:36:06;98979.44;;;23.12;100.00
73151;BME280;61354;50.758;6.106;2023-06-22T11:38:32;98982.94;;;23.45;100.00
73151;BME280;61354;50.758;6.106;2023-06-22T11:41:00;98973.84;;;23.67;99.83
73151;BME280;61354;50.758;6.106;2023-06-22T11:43:25;98973.44;;;23.39;100.00
73151;BME280;61354;50.758;6.106;2023-06-22T11:45:51;98974.00;;;23.18;100.00
73151;BME280;61354;50.758;6.106;2023-06-22T11:48:17;98960.88;;;23.11;100.00
73151;BME280;61354;50.758;6.106;2023-06-22T11:50:42;98961.81;;;23.33;100.00
73151;BME280;61354;50.758;6.106;2023-06-22T11:53:08;98960.75;;;23.44;100.00
73151;BME280;61354;50.758;6.106;2023-06-22T11:55:34;98958.25;;;23.17;98.02
73151;BME280;61354;50.758;6.106;2023-06-22T11:57:59;98951.47;;;23.14;98.01
73151;BME280;61354;50.758;6.106;2023-06-22T12:00:29;98941.50;;;22.93;98.87
73151;BME280;61354;50.758;6.106;2023-06-22T12:02:55;98945.78;;;22.85;100.00
73151;BME280;61354;50.758;6.106;2023-06-22T12:05:21;98937.78;;;22.96;100.00
73151;BME280;61354;50.758;6.106;2023-06-22T12:07:48;98947.50;;;23.12;100.00
73151;BME280;61354;50.758;6.106;2023-06-22T12:10:14;98934.06;;;22.99;100.00
73151;BME280;61354;50.758;6.106;2023-06-22T12:12:40;98929.31;;;22.96;99.71
73151;BME280;61354;50.758;6.106;2023-06-22T12:15:06;98942.63;;;23.12;99.24
73151;BME280;61354;50.758;6.106;2023-06-22T12:17:33;98934.06;;;22.99;97.56
73151;BME280;61354;50.758;6.106;2023-06-22T12:19:59;98925.28;;;23.10;98.48
73151;BME280;61354;50.758;6.106;2023-06-22T12:22:25;98914.78;;;23.23;99.59
73151;BME280;61354;50.758;6.106;2023-06-22T12:24:50;98899.78;;;23.65;100.00
73151;BME280;61354;50.758;6.106;2023-06-22T12:27:19;98902.25;;;23.50;96.69
73151;BME280;61354;50.758;6.106;2023-06-22T12:29:47;98897.97;;;23.71;96.39
73151;BME280;61354;50.758;6.106;2023-06-22T12:32:14;98898.97;;;23.51;95.87
73151;BME280;61354;50.758;6.106;2023-06-22T12:34:42;98900.00;;;23.57;96.02
73151;BME280;61354;50.758;6.106;2023-06-22T12:37:08;98899.00;;;23.90;95.91
73151;BME280;61354;50.758;6.106;2023-06-22T12:39:33;98899.00;;;24.02;94.60
73151;BME280;61354;50.758;6.106;2023-06-22T12:41:59;98897.06;;;23.87;93.40
73151;BME280;61354;50.758;6.106;2023-06-22T12:44:25;98891.81;;;23.60;93.91
73151;BME280;61354;50.758;6.106;2023-06-22T12:46:51;98881.03;;;23.54;94.95
73151;BME280;61354;50.758;6.106;2023-06-22T12:49:17;98876.97;;;23.55;94.42
73151;BME280;61354;50.758;6.106;2023-06-22T12:51:43;98886.38;;;23.52;95.36
73151;BME280;61354;50.758;6.106;2023-06-22T12:54:09;98878.31;;;23.51;95.71
73151;BME280;61354;50.758;6.106;2023-06-22T12:56:36;98878.75;;;23.37;97.58
73151;BME280;61354;50.758;6.106;2023-06-22T12:59:01;98882.28;;;23.28;97.67
73151;BME280;61354;50.758;6.106;2023-06-22T13:01:31;98879.19;;;23.22;98.77
73151;BME280;61354;50.758;6.106;2023-06-22T13:03:58;98863.53;;;23.18;99.02